sensor_id;sensor_type;location;lat;lon;timestamp;P1;durP1;ratioP1;P2;durP2;ratioP2
20314;SDS011;10315;50.958;13.080;2023-03-11T00:21:46;4.37;;;3.00;;
20314;SDS011;10315;50.958;13.080;2023-03-11T00:31:48;6.07;;;3.83;;
20314;SDS011;10315;50.958;13.080;2023-03-11T00:41:50;8.13;;;4.57;;
20314;SDS011;10315;50.958;13.080;2023-03-11T00:51:52;12.40;;;5.07;;
20314;SDS011;10315;50.958;13.080;2023-03-11T01:01:55;9.23;;;4.27;;
20314;SDS011;10315;50.958;13.080;2023-03-11T01:11:57;11.80;;;5.90;;
20314;SDS011;10315;50.958;13.080;2023-03-11T01:22:03;11.30;;;4.67;;
20314;SDS011;10315;50.958;13.080;2023-03-11T01:32:05;8.33;;;4.50;;
20314;SDS011;10315;50.958;13.080;2023-03-11T01:42:08;6.20;;;3.00;;
20314;SDS011;10315;50.958;13.080;2023-03-11T01:52:10;13.20;;;6.23;;
20314;SDS011;10315;50.958;13.080;2023-03-11T02:02:27;8.80;;;4.97;;
20314;SDS011;10315;50.958;13.080;2023-03-11T02:12:33;7.30;;;3.93;;
20314;SDS011;10315;50.958;13.080;2023-03-11T02:22:40;5.07;;;3.50;;
20314;SDS011;10315;50.958;13.080;2023-03-11T02:32:44;9.00;;;3.40;;
20314;SDS011;10315;50.958;13.080;2023-03-11T02:42:47;4.87;;;2.17;;
20314;SDS011;10315;50.958;13.080;2023-03-11T02:52:52;3.87;;;2.17;;
20314;SDS011;10315;50.958;13.080;2023-03-11T03:02:53;3.77;;;2.50;;
20314;SDS011;10315;50.958;13.080;2023-03-11T03:12:56;4.90;;;2.90;;
20314;SDS011;10315;50.958;13.080;2023-03-11T03:22:58;7.03;;;3.47;;
20314;SDS011;10315;50.958;13.080;2023-03-11T03:33:01;7.60;;;4.13;;
20314;SDS011;10315;50.958;13.080;2023-03-11T03:43:03;8.67;;;4.17;;
20314;SDS011;10315;50.958;13.080;2023-03-11T03:53:06;10.93;;;4.73;;
20314;SDS011;10315;50.958;13.080;2023-03-11T04:03:07;14.30;;;6.20;;
20314;SDS011;10315;50.958;13.080;2023-03-11T04:13:10;11.80;;;6.63;;
20314;SDS011;10315;50.958;13.080;2023-03-11T04:23:12;16.97;;;6.40;;
20314;SDS011;10315;50.958;13.080;2023-03-11T04:33:14;14.17;;;7.17;;
20314;SDS011;10315;50.958;13.080;2023-03-11T04:43:16;13.50;;;5.83;;
20314;SDS011;10315;50.958;13.080;2023-03-11T04:53:19;17.63;;;8.27;;
20314;SDS011;10315;50.958;13.080;2023-03-11T05:03:21;13.20;;;7.20;;
20314;SDS011;10315;50.958;13.080;2023-03-11T05:13:24;23.23;;;9.97;;
20314;SDS011;10315;50.958;13.080;2023-03-11T05:23:25;17.60;;;7.43;;
20314;SDS011;10315;50.958;13.080;2023-03-11T05:33:28;15.43;;;7.37;;
20314;SDS011;10315;50.958;13.080;2023-03-11T05:43:34;14.07;;;6.43;;
20314;SDS011;10315;50.958;13.080;2023-03-11T05:53:37;17.17;;;6.87;;
20314;SDS011;10315;50.958;13.080;2023-03-11T06:03:41;21.70;;;8.90;;
20314;SDS011;10315;50.958;13.080;2023-03-11T06:13:47;14.23;;;6.73;;
20314;SDS011;10315;50.958;13.080;2023-03-11T06:23:52;22.30;;;9.20;;
20314;SDS011;10315;50.958;13.080;2023-03-11T06:33:55;21.77;;;8.90;;
20314;SDS011;10315;50.958;13.080;2023-03-11T06:43:58;20.43;;;8.07;;
20314;SDS011;10315;50.958;13.080;2023-03-11T06:54:01;16.83;;;7.10;;
20314;SDS011;10315;50.958;13.080;2023-03-11T07:04:03;19.20;;;7.00;;
20314;SDS011;10315;50.958;13.080;2023-03-11T07:14:06;20.37;;;8.00;;
20314;SDS011;10315;50.958;13.080;2023-03-11T07:24:09;15.17;;;6.43;;
20314;SDS011;10315;50.958;13.080;2023-03-11T07:34:15;15.33;;;7.17;;
20314;SDS011;10315;50.958;13.080;2023-03-11T07:44:16;17.27;;;7.00;;
20314;SDS011;10315;50.958;13.080;2023-03-11T07:54:20;9.63;;;5.20;;
20314;SDS011;10315;50.958;13.080;2023-03-11T08:04:21;11.23;;;4.50;;
20314;SDS011;10315;50.958;13.080;2023-03-11T08:14:25;11.90;;;6.00;;
20314;SDS011;10315;50.958;13.080;2023-03-11T08:24:27;9.83;;;4.83;;
20314;SDS011;10315;50.958;13.080;2023-03-11T08:34:30;15.47;;;6.10;;
20314;SDS011;10315;50.958;13.080;2023-03-11T08:44:34;15.03;;;6.40;;
20314;SDS011;10315;50.958;13.080;2023-03-11T08:54:36;12.00;;;5.77;;
20314;SDS011;10315;50.958;13.080;2023-03-11T09:04:39;9.37;;;5.03;;
20314;SDS011;10315;50.958;13.080;2023-03-11T09:14:42;10.83;;;5.63;;
20314;SDS011;10315;50.958;13.080;2023-03-11T09:24:44;10.20;;;6.03;;
20314;SDS011;10315;50.958;13.080;2023-03-11T09:34:47;15.60;;;7.07;;
20314;SDS011;10315;50.958;13.080;2023-03-11T09:44:51;17.70;;;7.00;;
20314;SDS011;10315;50.958;13.080;2023-03-11T09:54:57;13.57;;;7.07;;
20314;SDS011;10315;50.958;13.080;2023-03-11T10:05:05;14.90;;;6.60;;
20314;SDS011;10315;50.958;13.080;2023-03-11T10:15:17;12.93;;;6.33;;
20314;SDS011;10315;50.958;13.080;2023-03-11T10:25:23;16.53;;;6.27;;
20314;SDS011;10315;50.958;13.080;2023-03-11T10:35:33;12.83;;;6.13;;
20314;SDS011;10315;50.958;13.080;2023-03-11T10:45:39;20.67;;;6.83;;
20314;SDS011;10315;50.958;13.080;2023-03-11T10:55:46;13.13;;;6.03;;
20314;SDS011;10315;50.958;13.080;2023-03-11T11:05:58;20.60;;;5.83;;
20314;SDS011;10315;50.958;13.080;2023-03-11T11:16:02;12.73;;;5.37;;
20314;SDS011;10315;50.958;13.080;2023-03-11T11:26:13;12.63;;;5.67;;
20314;SDS011;10315;50.958;13.080;2023-03-11T11:36:17;13.37;;;5.70;;
20314;SDS011;10315;50.958;13.080;2023-03-11T11:46:26;11.37;;;6.03;;
20314;SDS011;10315;50.958;13.080;2023-03-11T11:56:31;12.03;;;5.77;;
20314;SDS011;10315;50.958;13.080;2023-03-11T12:06:36;11.43;;;6.23;;
20314;SDS011;10315;50.958;13.080;2023-03-11T12:16:47;10.93;;;4.80;;
20314;SDS011;10315;50.958;13.080;2023-03-11T12:26:56;8.07;;;4.00;;
20314;SDS011;10315;50.958;13.080;2023-03-11T12:37:02;8.87;;;3.83;;
20314;SDS011;10315;50.958;13.080;2023-03-11T12:57:31;13.33;;;6.00;;
20314;SDS011;10315;50.958;13.080;2023-03-11T13:07:40;10.17;;;4.83;;
20314;SDS011;10315;50.958;13.080;2023-03-11T13:17:54;8.70;;;4.60;;
20314;SDS011;10315;50.958;13.080;2023-03-11T13:28:05;8.93;;;5.03;;
20314;SDS011;10315;50.958;13.080;2023-03-11T13:38:33;11.00;;;5.37;;
20314;SDS011;10315;50.958;13.080;2023-03-11T13:48:47;8.10;;;4.13;;
20314;SDS011;10315;50.958;13.080;2023-03-11T13:59:11;10.40;;;4.90;;
20314;SDS011;10315;50.958;13.080;2023-03-11T14:09:19;9.90;;;4.90;;
20314;SDS011;10315;50.958;13.080;2023-03-11T14:19:22;8.53;;;4.57;;
20314;SDS011;10315;50.958;13.080;2023-03-11T14:29:28;12.07;;;5.53;;
20314;SDS011;10315;50.958;13.080;2023-03-11T14:39:33;8.30;;;4.97;;
20314;SDS011;10315;50.958;13.080;2023-03-11T14:49:37;11.00;;;4.80;;
20314;SDS011;10315;50.958;13.080;2023-03-11T14:59:40;11.60;;;5.57;;
20314;SDS011;10315;50.958;13.080;2023-03-11T15:09:45;10.67;;;5.40;;
20314;SDS011;10315;50.958;13.080;2023-03-11T15:19:47;14.53;;;5.53;;
20314;SDS011;10315;50.958;13.080;2023-03-11T15:29:50;15.03;;;5.53;;
20314;SDS011;10315;50.958;13.080;2023-03-11T15:39:55;13.43;;;6.53;;
20314;SDS011;10315;50.958;13.080;2023-03-11T15:50:04;14.37;;;6.80;;
20314;SDS011;10315;50.958;13.080;2023-03-11T16:00:22;13.83;;;6.40;;
20314;SDS011;10315;50.958;13.080;2023-03-11T16:10:25;12.00;;;6.10;;
20314;SDS011;10315;50.958;13.080;2023-03-11T16:20:28;14.77;;;6.73;;
20314;SDS011;10315;50.958;13.080;2023-03-11T16:30:34;10.37;;;5.60;;
20314;SDS011;10315;50.958;13.080;2023-03-11T16:40:36;13.17;;;6.23;;
20314;SDS011;10315;50.958;13.080;2023-03-11T16:50:39;10.93;;;5.90;;
20314;SDS011;10315;50.958;13.080;2023-03-11T17:00:40;10.93;;;5.73;;
20314;SDS011;10315;50.958;13.080;2023-03-11T17:10:44;14.90;;;5.63;;
20314;SDS011;10315;50.958;13.080;2023-03-11T17:20:46;9.47;;;5.37;;
20314;SDS011;10315;50.958;13.080;2023-03-11T17:30:48;13.23;;;5.60;;
20314;SDS011;10315;50.958;13.080;2023-03-11T17:40:50;11.67;;;5.23;;
20314;SDS011;10315;50.958;13.080;2023-03-11T17:50:53;10.00;;;5.93;;
20314;SDS011;10315;50.958;13.080;2023-03-11T18:00:54;9.50;;;5.27;;
20314;SDS011;10315;50.958;13.080;2023-03-11T18:11:05;13.23;;;6.27;;
20314;SDS011;10315;50.958;13.080;2023-03-11T18:21:10;17.43;;;7.10;;
20314;SDS011;10315;50.958;13.080;2023-03-11T18:31:16;61.37;;;24.47;;
20314;SDS011;10315;50.958;13.080;2023-03-11T18:41:19;91.27;;;44.83;;
20314;SDS011;10315;50.958;13.080;2023-03-11T18:51:25;20.00;;;10.07;;
20314;SDS011;10315;50.958;13.080;2023-03-11T19:01:32;33.30;;;18.23;;
20314;SDS011;10315;50.958;13.080;2023-03-11T19:11:44;24.53;;;12.07;;
20314;SDS011;10315;50.958;13.080;2023-03-11T19:21:46;28.43;;;12.43;;
20314;SDS011;10315;50.958;13.080;2023-03-11T19:31:49;28.27;;;12.17;;
20314;SDS011;10315;50.958;13.080;2023-03-11T19:41:51;40.93;;;19.57;;
20314;SDS011;10315;50.958;13.080;2023-03-11T19:51:56;34.87;;;20.37;;
20314;SDS011;10315;50.958;13.080;2023-03-11T20:01:58;29.13;;;13.80;;
20314;SDS011;10315;50.958;13.080;2023-03-11T20:12:01;25.13;;;12.00;;
20314;SDS011;10315;50.958;13.080;2023-03-11T20:22:03;26.43;;;11.70;;
20314;SDS011;10315;50.958;13.080;2023-03-11T20:32:06;22.37;;;10.87;;
20314;SDS011;10315;50.958;13.080;2023-03-11T20:42:07;30.20;;;11.50;;
20314;SDS011;10315;50.958;13.080;2023-03-11T20:52:10;25.73;;;11.47;;
20314;SDS011;10315;50.958;13.080;2023-03-11T21:02:12;25.03;;;10.40;;
20314;SDS011;10315;50.958;13.080;2023-03-11T21:12:15;27.67;;;10.50;;
20314;SDS011;10315;50.958;13.080;2023-03-11T21:22:17;21.70;;;9.73;;
20314;SDS011;10315;50.958;13.080;2023-03-11T21:32:20;26.07;;;10.43;;
20314;SDS011;10315;50.958;13.080;2023-03-11T21:42:22;21.87;;;9.33;;
20314;SDS011;10315;50.958;13.080;2023-03-11T21:52:25;13.47;;;7.60;;
20314;SDS011;10315;50.958;13.080;2023-03-11T22:02:26;22.07;;;10.40;;
20314;SDS011;10315;50.958;13.080;2023-03-11T22:12:29;37.67;;;13.63;;
20314;SDS011;10315;50.958;13.080;2023-03-11T22:22:31;14.23;;;7.47;;
20314;SDS011;10315;50.958;13.080;2023-03-11T22:32:34;15.60;;;6.83;;
20314;SDS011;10315;50.958;13.080;2023-03-11T22:42:36;16.33;;;7.70;;
20314;SDS011;10315;50.958;13.080;2023-03-11T22:52:39;12.07;;;6.00;;
20314;SDS011;10315;50.958;13.080;2023-03-11T23:02:41;10.37;;;6.70;;
20314;SDS011;10315;50.958;13.080;2023-03-11T23:12:45;13.30;;;6.73;;
20314;SDS011;10315;50.958;13.080;2023-03-11T23:22:47;14.63;;;6.20;;
20314;SDS011;10315;50.958;13.080;2023-03-11T23:32:50;12.83;;;5.97;;
20314;SDS011;10315;50.958;13.080;2023-03-11T23:42:51;12.00;;;5.70;;
20314;SDS011;10315;50.958;13.080;2023-03-11T23:52:54;9.00;;;4.80;;
